sensor_id;sensor_type;location;lat;lon;timestamp;temperature;humidity
19214;DHT22;9741;51.020;5.304;2023-08-07T00:01:42;14.30;67.40
19214;DHT22;9741;51.020;5.304;2023-08-07T00:04:09;14.20;67.30
19214;DHT22;9741;51.020;5.304;2023-08-07T00:06:43;14.20;67.30
19214;DHT22;9741;51.020;5.304;2023-08-07T00:09:10;14.20;67.30
19214;DHT22;9741;51.020;5.304;2023-08-07T00:11:38;14.20;67.30
19214;DHT22;9741;51.020;5.304;2023-08-07T00:14:07;14.20;67.30
19214;DHT22;9741;51.020;5.304;2023-08-07T00:16:34;14.30;67.30
19214;DHT22;9741;51.020;5.304;2023-08-07T00:19:03;14.20;67.20
19214;DHT22;9741;51.020;5.304;2023-08-07T00:21:31;14.20;67.20
19214;DHT22;9741;51.020;5.304;2023-08-07T00:24:03;14.20;67.20
19214;DHT22;9741;51.020;5.304;2023-08-07T00:26:31;14.30;67.30
19214;DHT22;9741;51.020;5.304;2023-08-07T00:28:59;14.20;67.20
19214;DHT22;9741;51.020;5.304;2023-08-07T00:31:27;14.20;67.20
19214;DHT22;9741;51.020;5.304;2023-08-07T00:34:01;14.20;67.20
19214;DHT22;9741;51.020;5.304;2023-08-07T00:36:30;14.20;67.20
19214;DHT22;9741;51.020;5.304;2023-08-07T00:39:02;14.30;67.30
19214;DHT22;9741;51.020;5.304;2023-08-07T00:41:30;14.30;67.80
19214;DHT22;9741;51.020;5.304;2023-08-07T00:43:59;14.30;67.20
19214;DHT22;9741;51.020;5.304;2023-08-07T00:46:27;14.30;67.20
19214;DHT22;9741;51.020;5.304;2023-08-07T00:48:55;14.30;67.20
19214;DHT22;9741;51.020;5.304;2023-08-07T00:51:23;14.30;67.20
19214;DHT22;9741;51.020;5.304;2023-08-07T00:53:52;14.40;67.20
19214;DHT22;9741;51.020;5.304;2023-08-07T00:56:23;14.40;67.20
19214;DHT22;9741;51.020;5.304;2023-08-07T00:58:51;14.40;67.10
19214;DHT22;9741;51.020;5.304;2023-08-07T01:01:19;14.40;67.10
19214;DHT22;9741;51.020;5.304;2023-08-07T01:03:51;14.50;67.10
19214;DHT22;9741;51.020;5.304;2023-08-07T01:06:19;14.50;67.10
19214;DHT22;9741;51.020;5.304;2023-08-07T01:08:49;14.50;67.10
19214;DHT22;9741;51.020;5.304;2023-08-07T01:11:26;14.50;67.10
19214;DHT22;9741;51.020;5.304;2023-08-07T01:14:05;14.50;67.00
19214;DHT22;9741;51.020;5.304;2023-08-07T01:16:38;14.50;67.00
19214;DHT22;9741;51.020;5.304;2023-08-07T01:19:13;14.50;67.00
19214;DHT22;9741;51.020;5.304;2023-08-07T01:21:50;14.50;67.00
19214;DHT22;9741;51.020;5.304;2023-08-07T01:24:21;14.50;66.90
19214;DHT22;9741;51.020;5.304;2023-08-07T01:26:49;14.50;66.90
19214;DHT22;9741;51.020;5.304;2023-08-07T01:29:24;14.50;66.80
19214;DHT22;9741;51.020;5.304;2023-08-07T01:31:59;14.50;66.80
19214;DHT22;9741;51.020;5.304;2023-08-07T01:34:27;14.50;66.80
19214;DHT22;9741;51.020;5.304;2023-08-07T01:36:58;14.50;66.80
19214;DHT22;9741;51.020;5.304;2023-08-07T01:39:28;14.50;66.80
19214;DHT22;9741;51.020;5.304;2023-08-07T01:41:58;14.50;66.80
19214;DHT22;9741;51.020;5.304;2023-08-07T01:44:30;14.50;66.80
19214;DHT22;9741;51.020;5.304;2023-08-07T01:46:58;14.50;66.70
19214;DHT22;9741;51.020;5.304;2023-08-07T01:49:26;14.60;66.80
19214;DHT22;9741;51.020;5.304;2023-08-07T01:51:54;14.60;66.80
19214;DHT22;9741;51.020;5.304;2023-08-07T01:54:38;14.60;66.80
19214;DHT22;9741;51.020;5.304;2023-08-07T01:57:06;14.70;66.80
19214;DHT22;9741;51.020;5.304;2023-08-07T01:59:34;14.70;67.30
19214;DHT22;9741;51.020;5.304;2023-08-07T02:02:07;14.60;66.60
19214;DHT22;9741;51.020;5.304;2023-08-07T02:04:35;14.60;66.60
19214;DHT22;9741;51.020;5.304;2023-08-07T02:07:04;14.60;66.60
19214;DHT22;9741;51.020;5.304;2023-08-07T02:09:31;14.60;66.60
19214;DHT22;9741;51.020;5.304;2023-08-07T02:12:02;14.60;66.70
19214;DHT22;9741;51.020;5.304;2023-08-07T02:14:31;14.60;66.70
19214;DHT22;9741;51.020;5.304;2023-08-07T02:16:58;14.50;66.70
19214;DHT22;9741;51.020;5.304;2023-08-07T02:19:26;14.50;66.80
19214;DHT22;9741;51.020;5.304;2023-08-07T02:21:54;14.50;66.80
19214;DHT22;9741;51.020;5.304;2023-08-07T02:24:23;14.40;66.90
19214;DHT22;9741;51.020;5.304;2023-08-07T02:26:51;14.40;66.90
19214;DHT22;9741;51.020;5.304;2023-08-07T02:29:23;14.40;67.00
19214;DHT22;9741;51.020;5.304;2023-08-07T02:31:52;14.40;67.10
19214;DHT22;9741;51.020;5.304;2023-08-07T02:34:19;14.40;67.10
19214;DHT22;9741;51.020;5.304;2023-08-07T02:36:47;14.40;67.20
19214;DHT22;9741;51.020;5.304;2023-08-07T02:39:17;14.40;67.20
19214;DHT22;9741;51.020;5.304;2023-08-07T02:41:51;14.40;67.30
19214;DHT22;9741;51.020;5.304;2023-08-07T02:44:19;14.40;67.30
19214;DHT22;9741;51.020;5.304;2023-08-07T02:46:57;14.40;67.30
19214;DHT22;9741;51.020;5.304;2023-08-07T02:49:26;14.40;67.30
19214;DHT22;9741;51.020;5.304;2023-08-07T02:51:54;14.30;67.20
19214;DHT22;9741;51.020;5.304;2023-08-07T02:54:24;14.30;67.30
19214;DHT22;9741;51.020;5.304;2023-08-07T02:56:51;14.30;67.30
19214;DHT22;9741;51.020;5.304;2023-08-07T02:59:19;14.20;67.30
19214;DHT22;9741;51.020;5.304;2023-08-07T03:01:50;14.20;67.40
19214;DHT22;9741;51.020;5.304;2023-08-07T03:04:19;14.20;67.40
19214;DHT22;9741;51.020;5.304;2023-08-07T03:06:47;14.20;67.50
19214;DHT22;9741;51.020;5.304;2023-08-07T03:09:18;14.10;67.40
19214;DHT22;9741;51.020;5.304;2023-08-07T03:11:47;14.10;67.60
19214;DHT22;9741;51.020;5.304;2023-08-07T03:14:16;14.10;67.60
19214;DHT22;9741;51.020;5.304;2023-08-07T03:16:45;14.10;67.70
19214;DHT22;9741;51.020;5.304;2023-08-07T03:19:15;14.10;67.70
19214;DHT22;9741;51.020;5.304;2023-08-07T03:21:47;14.00;67.70
19214;DHT22;9741;51.020;5.304;2023-08-07T03:24:15;14.00;67.70
19214;DHT22;9741;51.020;5.304;2023-08-07T03:26:45;14.00;67.70
19214;DHT22;9741;51.020;5.304;2023-08-07T03:29:17;13.90;67.80
19214;DHT22;9741;51.020;5.304;2023-08-07T03:31:45;14.00;67.90
19214;DHT22;9741;51.020;5.304;2023-08-07T03:34:15;13.90;67.90
19214;DHT22;9741;51.020;5.304;2023-08-07T03:36:45;13.90;67.80
19214;DHT22;9741;51.020;5.304;2023-08-07T03:39:13;13.90;67.90
19214;DHT22;9741;51.020;5.304;2023-08-07T03:41:41;13.90;67.80
19214;DHT22;9741;51.020;5.304;2023-08-07T03:44:09;13.90;67.70
19214;DHT22;9741;51.020;5.304;2023-08-07T03:46:39;13.80;67.60
19214;DHT22;9741;51.020;5.304;2023-08-07T03:49:07;13.80;67.70
19214;DHT22;9741;51.020;5.304;2023-08-07T03:51:39;13.70;67.70
19214;DHT22;9741;51.020;5.304;2023-08-07T03:54:07;13.60;67.70
19214;DHT22;9741;51.020;5.304;2023-08-07T03:56:38;13.60;67.80
19214;DHT22;9741;51.020;5.304;2023-08-07T03:59:06;13.60;67.90
19214;DHT22;9741;51.020;5.304;2023-08-07T04:01:38;13.60;67.90
19214;DHT22;9741;51.020;5.304;2023-08-07T04:04:08;13.60;68.00
19214;DHT22;9741;51.020;5.304;2023-08-07T04:06:36;13.50;67.90
19214;DHT22;9741;51.020;5.304;2023-08-07T04:09:09;13.50;67.90
19214;DHT22;9741;51.020;5.304;2023-08-07T04:11:37;13.50;67.90
19214;DHT22;9741;51.020;5.304;2023-08-07T04:14:07;13.50;67.90
19214;DHT22;9741;51.020;5.304;2023-08-07T04:16:35;13.50;67.90
19214;DHT22;9741;51.020;5.304;2023-08-07T04:19:04;13.50;68.00
19214;DHT22;9741;51.020;5.304;2023-08-07T04:21:33;13.50;68.00
19214;DHT22;9741;51.020;5.304;2023-08-07T04:24:01;13.50;68.00
19214;DHT22;9741;51.020;5.304;2023-08-07T04:26:38;13.60;68.10
19214;DHT22;9741;51.020;5.304;2023-08-07T04:29:07;13.60;68.00
19214;DHT22;9741;51.020;5.304;2023-08-07T04:31:35;13.60;68.00
19214;DHT22;9741;51.020;5.304;2023-08-07T04:34:05;13.70;68.00
19214;DHT22;9741;51.020;5.304;2023-08-07T04:36:32;13.70;67.90
19214;DHT22;9741;51.020;5.304;2023-08-07T04:39:03;13.70;67.80
19214;DHT22;9741;51.020;5.304;2023-08-07T04:41:33;13.70;67.80
19214;DHT22;9741;51.020;5.304;2023-08-07T04:44:03;13.70;67.80
19214;DHT22;9741;51.020;5.304;2023-08-07T04:46:31;13.70;67.80
19214;DHT22;9741;51.020;5.304;2023-08-07T04:49:00;13.70;67.80
19214;DHT22;9741;51.020;5.304;2023-08-07T04:51:32;13.70;67.80
19214;DHT22;9741;51.020;5.304;2023-08-07T04:54:00;13.70;67.80
19214;DHT22;9741;51.020;5.304;2023-08-07T04:56:28;13.70;67.70
19214;DHT22;9741;51.020;5.304;2023-08-07T04:58:57;13.70;67.70
19214;DHT22;9741;51.020;5.304;2023-08-07T05:01:26;13.70;67.70
19214;DHT22;9741;51.020;5.304;2023-08-07T05:03:54;13.70;67.80
19214;DHT22;9741;51.020;5.304;2023-08-07T05:06:25;13.80;67.80
19214;DHT22;9741;51.020;5.304;2023-08-07T05:08:53;13.80;67.80
19214;DHT22;9741;51.020;5.304;2023-08-07T05:11:21;13.90;67.80
19214;DHT22;9741;51.020;5.304;2023-08-07T05:13:49;13.90;67.70
19214;DHT22;9741;51.020;5.304;2023-08-07T05:16:24;14.00;67.70
19214;DHT22;9741;51.020;5.304;2023-08-07T05:18:55;14.10;67.70
19214;DHT22;9741;51.020;5.304;2023-08-07T05:21:23;14.20;67.60
19214;DHT22;9741;51.020;5.304;2023-08-07T05:23:51;14.20;67.50
19214;DHT22;9741;51.020;5.304;2023-08-07T05:26:21;14.20;67.40
19214;DHT22;9741;51.020;5.304;2023-08-07T05:28:49;14.30;67.30
19214;DHT22;9741;51.020;5.304;2023-08-07T05:31:18;14.30;67.20
19214;DHT22;9741;51.020;5.304;2023-08-07T05:33:46;14.40;67.20
19214;DHT22;9741;51.020;5.304;2023-08-07T05:36:15;14.30;67.00
19214;DHT22;9741;51.020;5.304;2023-08-07T05:38:45;14.40;67.00
19214;DHT22;9741;51.020;5.304;2023-08-07T05:41:12;14.40;66.90
19214;DHT22;9741;51.020;5.304;2023-08-07T05:43:40;14.50;66.90
19214;DHT22;9741;51.020;5.304;2023-08-07T05:46:08;14.50;66.90
19214;DHT22;9741;51.020;5.304;2023-08-07T05:48:36;14.50;66.90
19214;DHT22;9741;51.020;5.304;2023-08-07T05:51:04;14.60;66.90
19214;DHT22;9741;51.020;5.304;2023-08-07T05:53:35;14.60;66.80
19214;DHT22;9741;51.020;5.304;2023-08-07T05:56:03;14.70;66.80
19214;DHT22;9741;51.020;5.304;2023-08-07T05:58:31;14.80;66.80
19214;DHT22;9741;51.020;5.304;2023-08-07T06:00:58;14.80;66.60
19214;DHT22;9741;51.020;5.304;2023-08-07T06:03:26;14.90;66.60
19214;DHT22;9741;51.020;5.304;2023-08-07T06:05:54;15.00;66.60
19214;DHT22;9741;51.020;5.304;2023-08-07T06:08:24;15.10;66.60
19214;DHT22;9741;51.020;5.304;2023-08-07T06:10:54;15.20;66.60
19214;DHT22;9741;51.020;5.304;2023-08-07T06:13:35;15.40;66.60
19214;DHT22;9741;51.020;5.304;2023-08-07T06:16:04;15.50;66.50
19214;DHT22;9741;51.020;5.304;2023-08-07T06:18:36;15.60;66.30
19214;DHT22;9741;51.020;5.304;2023-08-07T06:21:04;15.70;66.20
19214;DHT22;9741;51.020;5.304;2023-08-07T06:23:33;15.80;66.10
19214;DHT22;9741;51.020;5.304;2023-08-07T06:26:02;15.90;66.00
19214;DHT22;9741;51.020;5.304;2023-08-07T06:28:32;16.10;65.90
19214;DHT22;9741;51.020;5.304;2023-08-07T06:31:05;16.30;65.80
19214;DHT22;9741;51.020;5.304;2023-08-07T06:33:35;16.60;65.70
19214;DHT22;9741;51.020;5.304;2023-08-07T06:36:04;16.80;65.50
19214;DHT22;9741;51.020;5.304;2023-08-07T06:38:36;17.00;65.40
19214;DHT22;9741;51.020;5.304;2023-08-07T06:41:09;17.20;65.70
19214;DHT22;9741;51.020;5.304;2023-08-07T06:43:37;17.50;65.00
19214;DHT22;9741;51.020;5.304;2023-08-07T06:46:06;17.90;65.00
19214;DHT22;9741;51.020;5.304;2023-08-07T06:48:35;18.20;64.50
19214;DHT22;9741;51.020;5.304;2023-08-07T06:51:11;18.40;63.80
19214;DHT22;9741;51.020;5.304;2023-08-07T06:53:39;18.50;63.30
19214;DHT22;9741;51.020;5.304;2023-08-07T06:56:09;18.50;62.80
19214;DHT22;9741;51.020;5.304;2023-08-07T06:58:44;18.50;62.50
19214;DHT22;9741;51.020;5.304;2023-08-07T07:01:13;18.50;62.40
19214;DHT22;9741;51.020;5.304;2023-08-07T07:03:41;18.60;62.30
19214;DHT22;9741;51.020;5.304;2023-08-07T07:06:13;18.70;62.10
19214;DHT22;9741;51.020;5.304;2023-08-07T07:08:42;18.80;61.80
19214;DHT22;9741;51.020;5.304;2023-08-07T07:11:15;19.00;61.90
19214;DHT22;9741;51.020;5.304;2023-08-07T07:13:46;19.30;61.90
19214;DHT22;9741;51.020;5.304;2023-08-07T07:16:22;19.90;62.10
19214;DHT22;9741;51.020;5.304;2023-08-07T07:18:53;20.50;61.50
19214;DHT22;9741;51.020;5.304;2023-08-07T07:21:25;21.10;60.90
19214;DHT22;9741;51.020;5.304;2023-08-07T07:24:00;21.80;60.20
19214;DHT22;9741;51.020;5.304;2023-08-07T07:26:41;22.40;59.10
19214;DHT22;9741;51.020;5.304;2023-08-07T07:29:12;22.70;58.20
19214;DHT22;9741;51.020;5.304;2023-08-07T07:31:41;23.30;58.00
19214;DHT22;9741;51.020;5.304;2023-08-07T07:34:08;24.00;57.20
19214;DHT22;9741;51.020;5.304;2023-08-07T07:36:37;24.70;56.10
19214;DHT22;9741;51.020;5.304;2023-08-07T07:39:05;25.00;54.50
19214;DHT22;9741;51.020;5.304;2023-08-07T07:41:34;25.10;53.90
19214;DHT22;9741;51.020;5.304;2023-08-07T07:44:07;25.30;53.60
19214;DHT22;9741;51.020;5.304;2023-08-07T07:46:35;25.70;53.20
19214;DHT22;9741;51.020;5.304;2023-08-07T07:49:06;26.00;52.30
19214;DHT22;9741;51.020;5.304;2023-08-07T07:51:35;26.10;51.70
19214;DHT22;9741;51.020;5.304;2023-08-07T07:54:04;26.10;51.10
19214;DHT22;9741;51.020;5.304;2023-08-07T07:56:31;26.30;51.70
19214;DHT22;9741;51.020;5.304;2023-08-07T07:59:02;26.50;50.30
19214;DHT22;9741;51.020;5.304;2023-08-07T08:01:31;26.40;49.40
19214;DHT22;9741;51.020;5.304;2023-08-07T08:04:00;26.30;49.00
19214;DHT22;9741;51.020;5.304;2023-08-07T08:06:31;26.10;48.70
19214;DHT22;9741;51.020;5.304;2023-08-07T08:09:00;25.60;48.30
19214;DHT22;9741;51.020;5.304;2023-08-07T08:11:31;25.20;48.80
19214;DHT22;9741;51.020;5.304;2023-08-07T08:13:59;25.10;49.40
19214;DHT22;9741;51.020;5.304;2023-08-07T08:16:28;25.50;49.60
19214;DHT22;9741;51.020;5.304;2023-08-07T08:19:02;26.20;49.20
19214;DHT22;9741;51.020;5.304;2023-08-07T08:21:35;26.90;48.50
19214;DHT22;9741;51.020;5.304;2023-08-07T08:24:07;27.70;47.70
19214;DHT22;9741;51.020;5.304;2023-08-07T08:26:38;28.20;46.50
19214;DHT22;9741;51.020;5.304;2023-08-07T08:29:06;28.50;45.70
19214;DHT22;9741;51.020;5.304;2023-08-07T08:31:36;28.80;45.10
19214;DHT22;9741;51.020;5.304;2023-08-07T08:34:06;29.10;44.80
19214;DHT22;9741;51.020;5.304;2023-08-07T08:36:43;29.20;44.20
19214;DHT22;9741;51.020;5.304;2023-08-07T08:39:11;29.30;43.90
19214;DHT22;9741;51.020;5.304;2023-08-07T08:41:39;29.70;43.70
19214;DHT22;9741;51.020;5.304;2023-08-07T08:44:12;30.10;43.40
19214;DHT22;9741;51.020;5.304;2023-08-07T08:46:42;30.40;43.10
19214;DHT22;9741;51.020;5.304;2023-08-07T08:49:18;30.60;42.30
19214;DHT22;9741;51.020;5.304;2023-08-07T08:51:48;30.80;41.90
19214;DHT22;9741;51.020;5.304;2023-08-07T08:54:17;31.00;41.40
19214;DHT22;9741;51.020;5.304;2023-08-07T08:56:49;31.30;41.30
19214;DHT22;9741;51.020;5.304;2023-08-07T08:59:26;31.50;41.00
19214;DHT22;9741;51.020;5.304;2023-08-07T09:01:54;31.50;40.50
19214;DHT22;9741;51.020;5.304;2023-08-07T09:04:23;31.30;40.10
19214;DHT22;9741;51.020;5.304;2023-08-07T09:06:51;30.80;39.90
19214;DHT22;9741;51.020;5.304;2023-08-07T09:09:20;30.30;40.10
19214;DHT22;9741;51.020;5.304;2023-08-07T09:11:51;29.60;40.30
19214;DHT22;9741;51.020;5.304;2023-08-07T09:14:26;28.90;40.50
19214;DHT22;9741;51.020;5.304;2023-08-07T09:16:59;28.20;41.40
19214;DHT22;9741;51.020;5.304;2023-08-07T09:19:33;27.90;41.50
19214;DHT22;9741;51.020;5.304;2023-08-07T09:22:00;27.90;41.70
19214;DHT22;9741;51.020;5.304;2023-08-07T09:24:31;28.00;41.60
19214;DHT22;9741;51.020;5.304;2023-08-07T09:26:58;28.10;41.70
19214;DHT22;9741;51.020;5.304;2023-08-07T09:29:27;28.00;42.10
19214;DHT22;9741;51.020;5.304;2023-08-07T09:31:54;28.00;42.40
19214;DHT22;9741;51.020;5.304;2023-08-07T09:34:22;27.80;41.60
19214;DHT22;9741;51.020;5.304;2023-08-07T09:36:53;27.30;41.30
19214;DHT22;9741;51.020;5.304;2023-08-07T09:39:24;26.80;41.40
19214;DHT22;9741;51.020;5.304;2023-08-07T09:41:52;26.20;41.70
19214;DHT22;9741;51.020;5.304;2023-08-07T09:44:21;25.60;42.10
19214;DHT22;9741;51.020;5.304;2023-08-07T09:46:50;25.20;42.70
19214;DHT22;9741;51.020;5.304;2023-08-07T09:49:19;25.00;43.30
19214;DHT22;9741;51.020;5.304;2023-08-07T09:51:48;24.80;43.20
19214;DHT22;9741;51.020;5.304;2023-08-07T09:54:20;24.50;43.60
19214;DHT22;9741;51.020;5.304;2023-08-07T09:56:48;24.20;43.10
19214;DHT22;9741;51.020;5.304;2023-08-07T09:59:17;24.20;43.40
19214;DHT22;9741;51.020;5.304;2023-08-07T10:01:44;24.30;43.80
19214;DHT22;9741;51.020;5.304;2023-08-07T10:04:13;24.50;44.00
19214;DHT22;9741;51.020;5.304;2023-08-07T10:06:42;24.60;43.90
19214;DHT22;9741;51.020;5.304;2023-08-07T10:09:09;24.60;43.70
19214;DHT22;9741;51.020;5.304;2023-08-07T10:11:38;24.50;43.50
19214;DHT22;9741;51.020;5.304;2023-08-07T10:14:06;24.20;43.50
19214;DHT22;9741;51.020;5.304;2023-08-07T10:16:34;23.90;43.60
19214;DHT22;9741;51.020;5.304;2023-08-07T10:19:05;23.70;43.90
19214;DHT22;9741;51.020;5.304;2023-08-07T10:21:33;23.50;44.30
19214;DHT22;9741;51.020;5.304;2023-08-07T10:24:03;23.40;44.30
19214;DHT22;9741;51.020;5.304;2023-08-07T10:26:32;23.30;44.30
19214;DHT22;9741;51.020;5.304;2023-08-07T10:29:04;23.20;44.50
19214;DHT22;9741;51.020;5.304;2023-08-07T10:31:34;23.30;44.60
19214;DHT22;9741;51.020;5.304;2023-08-07T10:34:02;23.30;44.50
19214;DHT22;9741;51.020;5.304;2023-08-07T10:36:33;23.20;44.40
19214;DHT22;9741;51.020;5.304;2023-08-07T10:39:09;23.00;44.50
19214;DHT22;9741;51.020;5.304;2023-08-07T10:41:42;22.80;44.70
19214;DHT22;9741;51.020;5.304;2023-08-07T10:44:30;22.60;44.90
19214;DHT22;9741;51.020;5.304;2023-08-07T10:47:01;22.50;45.30
19214;DHT22;9741;51.020;5.304;2023-08-07T10:49:34;22.50;45.60
19214;DHT22;9741;51.020;5.304;2023-08-07T10:52:18;22.70;45.90
19214;DHT22;9741;51.020;5.304;2023-08-07T10:54:49;23.00;45.60
19214;DHT22;9741;51.020;5.304;2023-08-07T10:57:18;23.30;45.60
19214;DHT22;9741;51.020;5.304;2023-08-07T10:59:51;23.60;45.30
19214;DHT22;9741;51.020;5.304;2023-08-07T11:02:31;23.90;45.20
19214;DHT22;9741;51.020;5.304;2023-08-07T11:04:59;23.90;44.90
19214;DHT22;9741;51.020;5.304;2023-08-07T11:07:27;23.90;44.70
19214;DHT22;9741;51.020;5.304;2023-08-07T11:09:57;23.90;44.70
19214;DHT22;9741;51.020;5.304;2023-08-07T11:12:27;23.80;44.90
19214;DHT22;9741;51.020;5.304;2023-08-07T11:14:58;23.90;45.10
19214;DHT22;9741;51.020;5.304;2023-08-07T11:17:26;24.10;45.10
19214;DHT22;9741;51.020;5.304;2023-08-07T11:19:53;24.30;44.90
19214;DHT22;9741;51.020;5.304;2023-08-07T11:22:21;24.50;44.80
19214;DHT22;9741;51.020;5.304;2023-08-07T11:24:48;24.50;44.40
19214;DHT22;9741;51.020;5.304;2023-08-07T11:27:16;24.40;44.20
19214;DHT22;9741;51.020;5.304;2023-08-07T11:29:51;24.20;44.10
19214;DHT22;9741;51.020;5.304;2023-08-07T11:32:21;24.00;44.30
19214;DHT22;9741;51.020;5.304;2023-08-07T11:34:50;23.90;44.60
19214;DHT22;9741;51.020;5.304;2023-08-07T11:37:19;23.70;44.70
19214;DHT22;9741;51.020;5.304;2023-08-07T11:39:46;23.50;44.70
19214;DHT22;9741;51.020;5.304;2023-08-07T11:42:13;23.40;44.90
19214;DHT22;9741;51.020;5.304;2023-08-07T11:44:41;23.20;44.60
19214;DHT22;9741;51.020;5.304;2023-08-07T11:47:11;23.00;44.70
19214;DHT22;9741;51.020;5.304;2023-08-07T11:49:43;23.00;45.10
19214;DHT22;9741;51.020;5.304;2023-08-07T11:52:14;23.30;45.40
19214;DHT22;9741;51.020;5.304;2023-08-07T11:54:47;23.40;45.00
19214;DHT22;9741;51.020;5.304;2023-08-07T11:57:18;23.50;44.70
19214;DHT22;9741;51.020;5.304;2023-08-07T11:59:50;23.50;44.60
19214;DHT22;9741;51.020;5.304;2023-08-07T12:02:22;23.70;45.00
19214;DHT22;9741;51.020;5.304;2023-08-07T12:04:57;24.00;44.90
19214;DHT22;9741;51.020;5.304;2023-08-07T12:07:26;24.20;44.50
19214;DHT22;9741;51.020;5.304;2023-08-07T12:09:54;24.20;44.20
19214;DHT22;9741;51.020;5.304;2023-08-07T12:12:21;24.30;44.10
19214;DHT22;9741;51.020;5.304;2023-08-07T12:14:53;24.40;43.80
19214;DHT22;9741;51.020;5.304;2023-08-07T12:17:22;24.50;43.70
19214;DHT22;9741;51.020;5.304;2023-08-07T12:19:58;24.60;43.40
19214;DHT22;9741;51.020;5.304;2023-08-07T12:22:27;24.60;43.30
19214;DHT22;9741;51.020;5.304;2023-08-07T12:24:55;24.50;42.90
19214;DHT22;9741;51.020;5.304;2023-08-07T12:27:23;24.50;43.00
19214;DHT22;9741;51.020;5.304;2023-08-07T12:29:51;24.40;43.20
19214;DHT22;9741;51.020;5.304;2023-08-07T12:32:20;24.30;43.20
19214;DHT22;9741;51.020;5.304;2023-08-07T12:34:47;24.20;43.20
19214;DHT22;9741;51.020;5.304;2023-08-07T12:37:22;24.20;43.10
19214;DHT22;9741;51.020;5.304;2023-08-07T12:39:49;24.20;42.90
19214;DHT22;9741;51.020;5.304;2023-08-07T12:42:17;24.30;43.10
19214;DHT22;9741;51.020;5.304;2023-08-07T12:44:47;24.50;43.20
19214;DHT22;9741;51.020;5.304;2023-08-07T12:47:16;24.50;42.80
19214;DHT22;9741;51.020;5.304;2023-08-07T12:49:44;24.60;42.70
19214;DHT22;9741;51.020;5.304;2023-08-07T12:52:15;24.50;42.40
19214;DHT22;9741;51.020;5.304;2023-08-07T12:54:45;24.50;42.70
19214;DHT22;9741;51.020;5.304;2023-08-07T12:57:13;24.50;42.70
19214;DHT22;9741;51.020;5.304;2023-08-07T12:59:40;24.60;42.50
19214;DHT22;9741;51.020;5.304;2023-08-07T13:02:08;24.70;42.10
19214;DHT22;9741;51.020;5.304;2023-08-07T13:04:35;24.70;42.00
19214;DHT22;9741;51.020;5.304;2023-08-07T13:07:04;24.70;41.80
19214;DHT22;9741;51.020;5.304;2023-08-07T13:09:32;24.70;42.00
19214;DHT22;9741;51.020;5.304;2023-08-07T13:12:01;24.70;42.00
19214;DHT22;9741;51.020;5.304;2023-08-07T13:14:31;24.60;42.00
19214;DHT22;9741;51.020;5.304;2023-08-07T13:16:59;24.70;42.40
19214;DHT22;9741;51.020;5.304;2023-08-07T13:19:26;24.70;42.10
19214;DHT22;9741;51.020;5.304;2023-08-07T13:21:56;24.70;42.20
19214;DHT22;9741;51.020;5.304;2023-08-07T13:24:24;24.80;42.20
19214;DHT22;9741;51.020;5.304;2023-08-07T13:26:51;24.80;42.00
19214;DHT22;9741;51.020;5.304;2023-08-07T13:29:20;24.80;41.90
19214;DHT22;9741;51.020;5.304;2023-08-07T13:31:48;24.70;41.90
19214;DHT22;9741;51.020;5.304;2023-08-07T13:34:15;24.80;42.00
19214;DHT22;9741;51.020;5.304;2023-08-07T13:36:43;24.90;42.20
19214;DHT22;9741;51.020;5.304;2023-08-07T13:39:10;25.00;42.30
19214;DHT22;9741;51.020;5.304;2023-08-07T13:41:39;25.10;42.30
19214;DHT22;9741;51.020;5.304;2023-08-07T13:44:06;25.20;42.20
19214;DHT22;9741;51.020;5.304;2023-08-07T13:46:35;25.10;41.80
19214;DHT22;9741;51.020;5.304;2023-08-07T13:49:02;25.00;41.80
19214;DHT22;9741;51.020;5.304;2023-08-07T13:51:30;24.90;41.70
19214;DHT22;9741;51.020;5.304;2023-08-07T13:53:57;24.80;41.70
19214;DHT22;9741;51.020;5.304;2023-08-07T13:56:24;24.70;41.70
19214;DHT22;9741;51.020;5.304;2023-08-07T13:58:53;24.70;41.70
19214;DHT22;9741;51.020;5.304;2023-08-07T14:01:21;24.60;41.40
19214;DHT22;9741;51.020;5.304;2023-08-07T14:03:51;24.70;41.70
19214;DHT22;9741;51.020;5.304;2023-08-07T14:06:20;24.90;41.60
19214;DHT22;9741;51.020;5.304;2023-08-07T14:08:48;25.00;41.50
19214;DHT22;9741;51.020;5.304;2023-08-07T14:11:17;25.00;41.30
19214;DHT22;9741;51.020;5.304;2023-08-07T14:13:46;24.90;41.00
19214;DHT22;9741;51.020;5.304;2023-08-07T14:16:13;24.80;41.10
19214;DHT22;9741;51.020;5.304;2023-08-07T14:18:41;24.70;41.30
19214;DHT22;9741;51.020;5.304;2023-08-07T14:21:10;24.50;41.20
19214;DHT22;9741;51.020;5.304;2023-08-07T14:23:38;24.40;41.30
19214;DHT22;9741;51.020;5.304;2023-08-07T14:26:06;24.30;41.30
19214;DHT22;9741;51.020;5.304;2023-08-07T14:28:34;24.20;42.00
19214;DHT22;9741;51.020;5.304;2023-08-07T14:31:07;24.10;41.50
19214;DHT22;9741;51.020;5.304;2023-08-07T14:33:35;24.10;41.70
19214;DHT22;9741;51.020;5.304;2023-08-07T14:36:03;24.00;41.70
19214;DHT22;9741;51.020;5.304;2023-08-07T14:38:37;23.90;41.80
19214;DHT22;9741;51.020;5.304;2023-08-07T14:41:04;23.90;42.10
19214;DHT22;9741;51.020;5.304;2023-08-07T14:43:32;24.00;42.20
19214;DHT22;9741;51.020;5.304;2023-08-07T14:46:02;24.00;42.10
19214;DHT22;9741;51.020;5.304;2023-08-07T14:48:31;24.00;42.10
19214;DHT22;9741;51.020;5.304;2023-08-07T14:50:59;23.80;42.10
19214;DHT22;9741;51.020;5.304;2023-08-07T14:53:29;23.60;42.10
19214;DHT22;9741;51.020;5.304;2023-08-07T14:55:59;23.40;42.30
19214;DHT22;9741;51.020;5.304;2023-08-07T14:58:26;23.40;42.70
19214;DHT22;9741;51.020;5.304;2023-08-07T15:00:54;23.40;42.80
19214;DHT22;9741;51.020;5.304;2023-08-07T15:03:24;23.50;43.10
19214;DHT22;9741;51.020;5.304;2023-08-07T15:05:53;23.60;43.20
19214;DHT22;9741;51.020;5.304;2023-08-07T15:08:21;23.60;43.10
19214;DHT22;9741;51.020;5.304;2023-08-07T15:10:51;23.70;43.20
19214;DHT22;9741;51.020;5.304;2023-08-07T15:13:22;23.70;43.30
19214;DHT22;9741;51.020;5.304;2023-08-07T15:15:49;23.60;43.30
19214;DHT22;9741;51.020;5.304;2023-08-07T15:18:17;23.50;43.30
19214;DHT22;9741;51.020;5.304;2023-08-07T15:20:47;23.50;43.50
19214;DHT22;9741;51.020;5.304;2023-08-07T15:23:15;23.50;43.60
19214;DHT22;9741;51.020;5.304;2023-08-07T15:25:43;23.40;43.60
19214;DHT22;9741;51.020;5.304;2023-08-07T15:28:11;23.40;43.70
19214;DHT22;9741;51.020;5.304;2023-08-07T15:30:47;23.40;43.70
19214;DHT22;9741;51.020;5.304;2023-08-07T15:33:15;23.30;43.60
19214;DHT22;9741;51.020;5.304;2023-08-07T15:35:45;23.40;43.70
19214;DHT22;9741;51.020;5.304;2023-08-07T15:38:17;23.30;43.50
19214;DHT22;9741;51.020;5.304;2023-08-07T15:40:48;23.40;43.50
19214;DHT22;9741;51.020;5.304;2023-08-07T15:43:22;23.50;44.20
19214;DHT22;9741;51.020;5.304;2023-08-07T15:45:52;23.60;43.40
19214;DHT22;9741;51.020;5.304;2023-08-07T15:48:20;23.60;43.30
19214;DHT22;9741;51.020;5.304;2023-08-07T15:50:47;23.60;43.40
19214;DHT22;9741;51.020;5.304;2023-08-07T15:53:15;23.60;43.50
19214;DHT22;9741;51.020;5.304;2023-08-07T15:55:43;23.50;43.40
19214;DHT22;9741;51.020;5.304;2023-08-07T15:58:14;23.50;43.20
19214;DHT22;9741;51.020;5.304;2023-08-07T16:00:43;23.50;43.20